sensor_id;sensor_type;location;lat;lon;timestamp;P1;durP1;ratioP1;P2;durP2;ratioP2
21339;SDS011;10828;47.064;15.422;2022-09-12T00:00:19;3.40;;;0.90;;
21339;SDS011;10828;47.064;15.422;2022-09-12T00:02:50;6.97;;;1.40;;
21339;SDS011;10828;47.064;15.422;2022-09-12T00:05:16;4.93;;;1.20;;
21339;SDS011;10828;47.064;15.422;2022-09-12T00:07:42;2.30;;;1.00;;
21339;SDS011;10828;47.064;15.422;2022-09-12T00:10:08;2.53;;;1.00;;
21339;SDS011;10828;47.064;15.422;2022-09-12T00:12:34;2.70;;;1.10;;
21339;SDS011;10828;47.064;15.422;2022-09-12T00:15:00;7.63;;;1.20;;
21339;SDS011;10828;47.064;15.422;2022-09-12T00:17:27;1.80;;;0.97;;
21339;SDS011;10828;47.064;15.422;2022-09-12T00:19:53;1.77;;;0.97;;
21339;SDS011;10828;47.064;15.422;2022-09-12T00:22:22;1.87;;;1.10;;
21339;SDS011;10828;47.064;15.422;2022-09-12T00:24:48;5.13;;;0.97;;
21339;SDS011;10828;47.064;15.422;2022-09-12T00:27:14;2.10;;;1.00;;
21339;SDS011;10828;47.064;15.422;2022-09-12T00:29:40;3.40;;;1.07;;
21339;SDS011;10828;47.064;15.422;2022-09-12T00:32:07;1.97;;;0.90;;
21339;SDS011;10828;47.064;15.422;2022-09-12T00:34:34;4.77;;;1.00;;
21339;SDS011;10828;47.064;15.422;2022-09-12T00:37:11;2.37;;;0.90;;
21339;SDS011;10828;47.064;15.422;2022-09-12T00:39:44;3.27;;;1.13;;
21339;SDS011;10828;47.064;15.422;2022-09-12T00:42:12;3.30;;;1.73;;
21339;SDS011;10828;47.064;15.422;2022-09-12T00:44:41;6.87;;;1.40;;
21339;SDS011;10828;47.064;15.422;2022-09-12T00:52:54;4.50;;;1.10;;
21339;SDS011;10828;47.064;15.422;2022-09-12T00:54:57;5.17;;;1.30;;
21339;SDS011;10828;47.064;15.422;2022-09-12T01:00:08;1.37;;;0.97;;
21339;SDS011;10828;47.064;15.422;2022-09-12T01:02:42;2.70;;;1.30;;
21339;SDS011;10828;47.064;15.422;2022-09-12T01:05:09;2.73;;;1.20;;
21339;SDS011;10828;47.064;15.422;2022-09-12T01:07:36;4.43;;;1.00;;
21339;SDS011;10828;47.064;15.422;2022-09-12T01:10:12;3.37;;;1.00;;
21339;SDS011;10828;47.064;15.422;2022-09-12T01:12:41;2.53;;;1.20;;
21339;SDS011;10828;47.064;15.422;2022-09-12T01:15:09;2.40;;;1.10;;
21339;SDS011;10828;47.064;15.422;2022-09-12T01:20:34;3.33;;;1.10;;
21339;SDS011;10828;47.064;15.422;2022-09-12T01:23:50;4.70;;;1.27;;
21339;SDS011;10828;47.064;15.422;2022-09-12T01:29:05;2.13;;;1.00;;
21339;SDS011;10828;47.064;15.422;2022-09-12T01:36:43;4.53;;;1.23;;
21339;SDS011;10828;47.064;15.422;2022-09-12T01:39:19;6.43;;;1.10;;
21339;SDS011;10828;47.064;15.422;2022-09-12T01:41:54;10.80;;;1.30;;
21339;SDS011;10828;47.064;15.422;2022-09-12T01:44:28;2.10;;;1.00;;
21339;SDS011;10828;47.064;15.422;2022-09-12T01:47:20;2.63;;;1.00;;
21339;SDS011;10828;47.064;15.422;2022-09-12T01:50:04;1.97;;;1.00;;
21339;SDS011;10828;47.064;15.422;2022-09-12T01:55:50;3.23;;;1.10;;
21339;SDS011;10828;47.064;15.422;2022-09-12T02:03:25;2.77;;;1.13;;
21339;SDS011;10828;47.064;15.422;2022-09-12T02:06:09;6.40;;;1.33;;
21339;SDS011;10828;47.064;15.422;2022-09-12T02:08:39;4.53;;;1.17;;
21339;SDS011;10828;47.064;15.422;2022-09-12T02:11:23;3.00;;;1.70;;
21339;SDS011;10828;47.064;15.422;2022-09-12T02:13:53;5.43;;;2.67;;
21339;SDS011;10828;47.064;15.422;2022-09-12T02:16:41;4.53;;;1.37;;
21339;SDS011;10828;47.064;15.422;2022-09-12T02:19:15;2.50;;;1.20;;
21339;SDS011;10828;47.064;15.422;2022-09-12T02:21:44;6.37;;;1.50;;
21339;SDS011;10828;47.064;15.422;2022-09-12T02:24:12;3.77;;;1.20;;
21339;SDS011;10828;47.064;15.422;2022-09-12T02:26:43;5.37;;;1.13;;
21339;SDS011;10828;47.064;15.422;2022-09-12T02:29:13;4.60;;;1.47;;
21339;SDS011;10828;47.064;15.422;2022-09-12T02:36:52;9.07;;;1.60;;
21339;SDS011;10828;47.064;15.422;2022-09-12T02:39:20;8.50;;;1.90;;
21339;SDS011;10828;47.064;15.422;2022-09-12T02:41:50;2.33;;;1.00;;
21339;SDS011;10828;47.064;15.422;2022-09-12T02:49:37;9.57;;;1.77;;
21339;SDS011;10828;47.064;15.422;2022-09-12T02:52:07;5.83;;;1.53;;
21339;SDS011;10828;47.064;15.422;2022-09-12T02:54:33;4.87;;;1.40;;
21339;SDS011;10828;47.064;15.422;2022-09-12T02:57:02;5.47;;;1.37;;
21339;SDS011;10828;47.064;15.422;2022-09-12T02:59:29;4.27;;;1.37;;
21339;SDS011;10828;47.064;15.422;2022-09-12T03:02:20;3.00;;;1.30;;
21339;SDS011;10828;47.064;15.422;2022-09-12T03:10:18;5.67;;;1.80;;
21339;SDS011;10828;47.064;15.422;2022-09-12T03:18:04;3.70;;;1.40;;
21339;SDS011;10828;47.064;15.422;2022-09-12T03:26:00;8.37;;;1.83;;
21339;SDS011;10828;47.064;15.422;2022-09-12T03:28:28;3.20;;;1.40;;
21339;SDS011;10828;47.064;15.422;2022-09-12T03:30:55;2.63;;;1.20;;
21339;SDS011;10828;47.064;15.422;2022-09-12T03:33:25;6.87;;;1.73;;
21339;SDS011;10828;47.064;15.422;2022-09-12T03:35:52;5.10;;;1.63;;
21339;SDS011;10828;47.064;15.422;2022-09-12T03:38:18;3.33;;;1.70;;
21339;SDS011;10828;47.064;15.422;2022-09-12T03:40:44;6.73;;;1.40;;
21339;SDS011;10828;47.064;15.422;2022-09-12T03:43:18;11.10;;;1.60;;
21339;SDS011;10828;47.064;15.422;2022-09-12T03:45:44;8.67;;;1.83;;
21339;SDS011;10828;47.064;15.422;2022-09-12T03:48:21;3.87;;;1.40;;
21339;SDS011;10828;47.064;15.422;2022-09-12T03:50:47;10.67;;;1.67;;
21339;SDS011;10828;47.064;15.422;2022-09-12T03:53:13;6.20;;;1.63;;
21339;SDS011;10828;47.064;15.422;2022-09-12T03:55:39;8.10;;;1.50;;
21339;SDS011;10828;47.064;15.422;2022-09-12T03:58:05;9.87;;;1.90;;
21339;SDS011;10828;47.064;15.422;2022-09-12T04:00:31;11.50;;;2.10;;
21339;SDS011;10828;47.064;15.422;2022-09-12T04:02:59;9.90;;;2.10;;
21339;SDS011;10828;47.064;15.422;2022-09-12T04:05:38;7.77;;;1.70;;
21339;SDS011;10828;47.064;15.422;2022-09-12T04:08:10;5.33;;;1.67;;
21339;SDS011;10828;47.064;15.422;2022-09-12T04:10:36;5.00;;;2.20;;
21339;SDS011;10828;47.064;15.422;2022-09-12T04:13:03;4.90;;;1.80;;
21339;SDS011;10828;47.064;15.422;2022-09-12T04:15:29;8.67;;;1.70;;
21339;SDS011;10828;47.064;15.422;2022-09-12T04:17:56;11.03;;;1.80;;
21339;SDS011;10828;47.064;15.422;2022-09-12T04:20:24;7.83;;;3.00;;
21339;SDS011;10828;47.064;15.422;2022-09-12T04:22:52;6.23;;;1.80;;
21339;SDS011;10828;47.064;15.422;2022-09-12T04:25:18;8.00;;;1.90;;
21339;SDS011;10828;47.064;15.422;2022-09-12T04:27:46;4.10;;;1.87;;
21339;SDS011;10828;47.064;15.422;2022-09-12T04:30:12;4.37;;;1.90;;
21339;SDS011;10828;47.064;15.422;2022-09-12T04:32:38;6.07;;;1.90;;
21339;SDS011;10828;47.064;15.422;2022-09-12T04:35:07;6.17;;;1.67;;
21339;SDS011;10828;47.064;15.422;2022-09-12T04:37:33;10.07;;;2.10;;
21339;SDS011;10828;47.064;15.422;2022-09-12T04:40:00;7.30;;;1.50;;
21339;SDS011;10828;47.064;15.422;2022-09-12T04:42:26;11.30;;;2.23;;
21339;SDS011;10828;47.064;15.422;2022-09-12T04:44:59;5.70;;;2.20;;
21339;SDS011;10828;47.064;15.422;2022-09-12T04:47:25;4.50;;;2.00;;
21339;SDS011;10828;47.064;15.422;2022-09-12T04:49:52;9.13;;;2.57;;
21339;SDS011;10828;47.064;15.422;2022-09-12T04:52:18;8.53;;;2.30;;
21339;SDS011;10828;47.064;15.422;2022-09-12T04:54:44;15.50;;;2.90;;
21339;SDS011;10828;47.064;15.422;2022-09-12T04:57:10;7.17;;;2.40;;
21339;SDS011;10828;47.064;15.422;2022-09-12T04:59:43;9.33;;;3.23;;
21339;SDS011;10828;47.064;15.422;2022-09-12T05:02:16;15.97;;;3.73;;
21339;SDS011;10828;47.064;15.422;2022-09-12T05:04:42;12.97;;;4.10;;
21339;SDS011;10828;47.064;15.422;2022-09-12T05:07:11;11.40;;;3.67;;
21339;SDS011;10828;47.064;15.422;2022-09-12T05:09:39;12.47;;;3.33;;
21339;SDS011;10828;47.064;15.422;2022-09-12T05:12:05;16.77;;;3.40;;
21339;SDS011;10828;47.064;15.422;2022-09-12T05:14:32;10.10;;;2.90;;
21339;SDS011;10828;47.064;15.422;2022-09-12T05:16:58;7.50;;;2.57;;
21339;SDS011;10828;47.064;15.422;2022-09-12T05:19:26;10.40;;;2.90;;
21339;SDS011;10828;47.064;15.422;2022-09-12T05:21:54;19.17;;;4.50;;
21339;SDS011;10828;47.064;15.422;2022-09-12T05:24:20;15.60;;;5.23;;
21339;SDS011;10828;47.064;15.422;2022-09-12T05:26:46;14.90;;;4.50;;
21339;SDS011;10828;47.064;15.422;2022-09-12T05:29:13;19.10;;;4.00;;
21339;SDS011;10828;47.064;15.422;2022-09-12T05:31:41;14.23;;;4.07;;
21339;SDS011;10828;47.064;15.422;2022-09-12T05:34:08;12.60;;;4.30;;
21339;SDS011;10828;47.064;15.422;2022-09-12T05:36:35;13.03;;;4.50;;
21339;SDS011;10828;47.064;15.422;2022-09-12T05:39:02;16.47;;;3.23;;
21339;SDS011;10828;47.064;15.422;2022-09-12T05:41:33;13.87;;;3.77;;
21339;SDS011;10828;47.064;15.422;2022-09-12T05:44:02;10.83;;;3.57;;
21339;SDS011;10828;47.064;15.422;2022-09-12T05:46:30;9.07;;;3.00;;
21339;SDS011;10828;47.064;15.422;2022-09-12T05:49:01;11.97;;;2.90;;
21339;SDS011;10828;47.064;15.422;2022-09-12T05:51:31;15.87;;;3.43;;
21339;SDS011;10828;47.064;15.422;2022-09-12T05:53:59;9.73;;;2.83;;
21339;SDS011;10828;47.064;15.422;2022-09-12T05:56:29;12.90;;;3.27;;
21339;SDS011;10828;47.064;15.422;2022-09-12T06:01:32;8.23;;;2.90;;
21339;SDS011;10828;47.064;15.422;2022-09-12T06:06:34;20.17;;;3.53;;
21339;SDS011;10828;47.064;15.422;2022-09-12T06:09:01;17.03;;;3.03;;
21339;SDS011;10828;47.064;15.422;2022-09-12T06:11:29;12.47;;;2.80;;
21339;SDS011;10828;47.064;15.422;2022-09-12T06:13:56;12.07;;;3.67;;
21339;SDS011;10828;47.064;15.422;2022-09-12T06:16:24;12.40;;;3.37;;
21339;SDS011;10828;47.064;15.422;2022-09-12T06:18:53;10.43;;;2.90;;
21339;SDS011;10828;47.064;15.422;2022-09-12T06:21:21;12.27;;;3.07;;
21339;SDS011;10828;47.064;15.422;2022-09-12T06:23:49;10.87;;;3.30;;
21339;SDS011;10828;47.064;15.422;2022-09-12T06:26:16;12.27;;;3.37;;
21339;SDS011;10828;47.064;15.422;2022-09-12T06:28:48;10.27;;;3.30;;
21339;SDS011;10828;47.064;15.422;2022-09-12T06:31:16;11.70;;;3.20;;
21339;SDS011;10828;47.064;15.422;2022-09-12T06:39:02;7.00;;;3.23;;
21339;SDS011;10828;47.064;15.422;2022-09-12T06:41:31;6.93;;;2.70;;
21339;SDS011;10828;47.064;15.422;2022-09-12T06:43:58;19.40;;;3.37;;
21339;SDS011;10828;47.064;15.422;2022-09-12T06:46:25;11.00;;;3.43;;
21339;SDS011;10828;47.064;15.422;2022-09-12T06:48:51;9.33;;;3.07;;
21339;SDS011;10828;47.064;15.422;2022-09-12T06:51:19;22.97;;;3.40;;
21339;SDS011;10828;47.064;15.422;2022-09-12T06:53:46;11.77;;;2.93;;
21339;SDS011;10828;47.064;15.422;2022-09-12T06:56:23;9.27;;;3.17;;
21339;SDS011;10828;47.064;15.422;2022-09-12T06:58:49;8.07;;;3.17;;
21339;SDS011;10828;47.064;15.422;2022-09-12T07:01:23;9.43;;;3.47;;
21339;SDS011;10828;47.064;15.422;2022-09-12T07:04:04;7.53;;;3.00;;
21339;SDS011;10828;47.064;15.422;2022-09-12T07:06:35;14.63;;;3.23;;
21339;SDS011;10828;47.064;15.422;2022-09-12T07:09:11;9.77;;;3.43;;
21339;SDS011;10828;47.064;15.422;2022-09-12T07:11:39;12.00;;;3.30;;
21339;SDS011;10828;47.064;15.422;2022-09-12T07:14:06;11.47;;;3.30;;
21339;SDS011;10828;47.064;15.422;2022-09-12T07:16:33;15.63;;;3.33;;
21339;SDS011;10828;47.064;15.422;2022-09-12T07:19:02;9.33;;;3.20;;
21339;SDS011;10828;47.064;15.422;2022-09-12T07:21:29;9.43;;;2.80;;
21339;SDS011;10828;47.064;15.422;2022-09-12T07:23:57;11.47;;;2.93;;
21339;SDS011;10828;47.064;15.422;2022-09-12T07:26:23;16.30;;;4.00;;
21339;SDS011;10828;47.064;15.422;2022-09-12T07:29:04;15.70;;;3.73;;
21339;SDS011;10828;47.064;15.422;2022-09-12T07:31:31;13.20;;;3.63;;
21339;SDS011;10828;47.064;15.422;2022-09-12T07:33:57;7.50;;;3.60;;
21339;SDS011;10828;47.064;15.422;2022-09-12T07:36:23;11.03;;;3.40;;
21339;SDS011;10828;47.064;15.422;2022-09-12T07:38:53;11.47;;;2.80;;
21339;SDS011;10828;47.064;15.422;2022-09-12T07:41:20;11.40;;;2.77;;
21339;SDS011;10828;47.064;15.422;2022-09-12T07:43:50;7.90;;;2.97;;
21339;SDS011;10828;47.064;15.422;2022-09-12T07:46:24;9.50;;;2.60;;
21339;SDS011;10828;47.064;15.422;2022-09-12T07:48:58;11.80;;;2.40;;
21339;SDS011;10828;47.064;15.422;2022-09-12T07:51:25;6.67;;;2.67;;
21339;SDS011;10828;47.064;15.422;2022-09-12T07:53:51;9.50;;;2.73;;
21339;SDS011;10828;47.064;15.422;2022-09-12T07:56:17;18.40;;;2.90;;
21339;SDS011;10828;47.064;15.422;2022-09-12T07:58:44;5.83;;;2.37;;
21339;SDS011;10828;47.064;15.422;2022-09-12T08:01:18;5.70;;;2.33;;
21339;SDS011;10828;47.064;15.422;2022-09-12T08:03:56;8.10;;;2.67;;
21339;SDS011;10828;47.064;15.422;2022-09-12T08:06:33;13.73;;;2.70;;
21339;SDS011;10828;47.064;15.422;2022-09-12T08:09:06;5.43;;;1.83;;
21339;SDS011;10828;47.064;15.422;2022-09-12T08:11:32;5.30;;;1.57;;
21339;SDS011;10828;47.064;15.422;2022-09-12T08:14:07;5.23;;;2.10;;
21339;SDS011;10828;47.064;15.422;2022-09-12T08:16:33;6.30;;;2.07;;
21339;SDS011;10828;47.064;15.422;2022-09-12T08:19:00;4.00;;;1.70;;
21339;SDS011;10828;47.064;15.422;2022-09-12T08:23:56;7.63;;;2.40;;
21339;SDS011;10828;47.064;15.422;2022-09-12T08:26:24;5.43;;;2.00;;
21339;SDS011;10828;47.064;15.422;2022-09-12T08:28:52;9.30;;;2.00;;
21339;SDS011;10828;47.064;15.422;2022-09-12T08:31:19;6.73;;;2.20;;
21339;SDS011;10828;47.064;15.422;2022-09-12T08:33:45;5.00;;;1.57;;
21339;SDS011;10828;47.064;15.422;2022-09-12T08:36:15;7.33;;;1.87;;
21339;SDS011;10828;47.064;15.422;2022-09-12T08:38:44;4.50;;;1.50;;
21339;SDS011;10828;47.064;15.422;2022-09-12T08:41:20;6.00;;;1.90;;
21339;SDS011;10828;47.064;15.422;2022-09-12T08:46:30;6.80;;;1.50;;
21339;SDS011;10828;47.064;15.422;2022-09-12T08:48:59;8.23;;;1.57;;
21339;SDS011;10828;47.064;15.422;2022-09-12T08:51:27;3.57;;;1.30;;
21339;SDS011;10828;47.064;15.422;2022-09-12T08:53:55;4.50;;;1.47;;
21339;SDS011;10828;47.064;15.422;2022-09-12T08:56:24;6.77;;;1.37;;
21339;SDS011;10828;47.064;15.422;2022-09-12T08:58:51;9.47;;;2.90;;
21339;SDS011;10828;47.064;15.422;2022-09-12T09:01:31;8.27;;;1.40;;
21339;SDS011;10828;47.064;15.422;2022-09-12T09:12:29;8.30;;;1.77;;
21339;SDS011;10828;47.064;15.422;2022-09-12T09:17:24;3.97;;;1.20;;
21339;SDS011;10828;47.064;15.422;2022-09-12T09:22:41;4.37;;;1.30;;
21339;SDS011;10828;47.064;15.422;2022-09-12T09:25:11;4.63;;;1.30;;
21339;SDS011;10828;47.064;15.422;2022-09-12T09:27:51;3.57;;;1.20;;
21339;SDS011;10828;47.064;15.422;2022-09-12T09:30:19;4.17;;;1.40;;
21339;SDS011;10828;47.064;15.422;2022-09-12T09:32:57;8.10;;;1.37;;
21339;SDS011;10828;47.064;15.422;2022-09-12T09:35:43;5.63;;;1.20;;
21339;SDS011;10828;47.064;15.422;2022-09-12T09:40:40;8.03;;;1.77;;
21339;SDS011;10828;47.064;15.422;2022-09-12T09:45:47;4.10;;;1.30;;
21339;SDS011;10828;47.064;15.422;2022-09-12T09:50:59;8.07;;;1.70;;
21339;SDS011;10828;47.064;15.422;2022-09-12T09:55:59;4.00;;;1.63;;
21339;SDS011;10828;47.064;15.422;2022-09-12T09:58:32;4.13;;;1.40;;
21339;SDS011;10828;47.064;15.422;2022-09-12T10:00:59;4.60;;;1.50;;
21339;SDS011;10828;47.064;15.422;2022-09-12T10:03:30;2.97;;;1.33;;
21339;SDS011;10828;47.064;15.422;2022-09-12T10:06:06;5.23;;;1.40;;
21339;SDS011;10828;47.064;15.422;2022-09-12T10:08:35;4.60;;;1.50;;
21339;SDS011;10828;47.064;15.422;2022-09-12T10:11:06;11.27;;;1.50;;
21339;SDS011;10828;47.064;15.422;2022-09-12T10:14:14;6.93;;;1.30;;
21339;SDS011;10828;47.064;15.422;2022-09-12T10:16:33;3.27;;;1.30;;
21339;SDS011;10828;47.064;15.422;2022-09-12T10:19:00;4.73;;;1.50;;
21339;SDS011;10828;47.064;15.422;2022-09-12T10:21:28;5.30;;;1.80;;
21339;SDS011;10828;47.064;15.422;2022-09-12T10:26:40;7.30;;;1.40;;
21339;SDS011;10828;47.064;15.422;2022-09-12T10:29:17;3.43;;;1.30;;
21339;SDS011;10828;47.064;15.422;2022-09-12T10:31:58;5.80;;;1.20;;
21339;SDS011;10828;47.064;15.422;2022-09-12T10:37:01;5.83;;;1.57;;
21339;SDS011;10828;47.064;15.422;2022-09-12T10:39:30;5.57;;;1.50;;
21339;SDS011;10828;47.064;15.422;2022-09-12T10:41:58;5.17;;;1.10;;
21339;SDS011;10828;47.064;15.422;2022-09-12T10:44:30;4.60;;;1.27;;
21339;SDS011;10828;47.064;15.422;2022-09-12T10:47:17;3.87;;;1.30;;
21339;SDS011;10828;47.064;15.422;2022-09-12T10:49:44;2.80;;;1.13;;
21339;SDS011;10828;47.064;15.422;2022-09-12T10:52:19;3.53;;;1.30;;
21339;SDS011;10828;47.064;15.422;2022-09-12T10:54:47;6.20;;;1.40;;
21339;SDS011;10828;47.064;15.422;2022-09-12T10:57:17;5.27;;;1.40;;
21339;SDS011;10828;47.064;15.422;2022-09-12T11:00:02;4.90;;;1.13;;
21339;SDS011;10828;47.064;15.422;2022-09-12T11:02:36;4.97;;;1.10;;
21339;SDS011;10828;47.064;15.422;2022-09-12T11:07:53;2.97;;;1.33;;
21339;SDS011;10828;47.064;15.422;2022-09-12T11:12:58;5.20;;;1.00;;
21339;SDS011;10828;47.064;15.422;2022-09-12T11:15:36;7.57;;;1.00;;
21339;SDS011;10828;47.064;15.422;2022-09-12T11:33:43;2.13;;;1.00;;
21339;SDS011;10828;47.064;15.422;2022-09-12T11:36:54;3.23;;;1.10;;
21339;SDS011;10828;47.064;15.422;2022-09-12T11:39:12;2.00;;;0.97;;
21339;SDS011;10828;47.064;15.422;2022-09-12T11:41:42;3.50;;;1.00;;
21339;SDS011;10828;47.064;15.422;2022-09-12T11:44:20;3.77;;;0.90;;
21339;SDS011;10828;47.064;15.422;2022-09-12T11:46:53;3.43;;;1.00;;
21339;SDS011;10828;47.064;15.422;2022-09-12T11:52:17;6.80;;;1.27;;
21339;SDS011;10828;47.064;15.422;2022-09-12T11:57:58;2.03;;;0.90;;
21339;SDS011;10828;47.064;15.422;2022-09-12T12:02:43;2.13;;;1.20;;
21339;SDS011;10828;47.064;15.422;2022-09-12T12:08:09;1.97;;;0.90;;
21339;SDS011;10828;47.064;15.422;2022-09-12T12:10:37;10.40;;;2.27;;
21339;SDS011;10828;47.064;15.422;2022-09-12T12:13:15;1.67;;;1.00;;
21339;SDS011;10828;47.064;15.422;2022-09-12T12:18:29;2.80;;;1.30;;
21339;SDS011;10828;47.064;15.422;2022-09-12T12:21:19;5.97;;;1.33;;
21339;SDS011;10828;47.064;15.422;2022-09-12T12:24:00;4.60;;;0.90;;
21339;SDS011;10828;47.064;15.422;2022-09-12T12:32:18;3.80;;;0.80;;
21339;SDS011;10828;47.064;15.422;2022-09-12T12:36:58;3.70;;;1.30;;
21339;SDS011;10828;47.064;15.422;2022-09-12T12:50:22;2.17;;;1.10;;
21339;SDS011;10828;47.064;15.422;2022-09-12T12:57:59;2.37;;;0.93;;
21339;SDS011;10828;47.064;15.422;2022-09-12T13:00:34;2.50;;;1.00;;
21339;SDS011;10828;47.064;15.422;2022-09-12T13:05:28;1.70;;;0.93;;
21339;SDS011;10828;47.064;15.422;2022-09-12T13:07:57;2.27;;;0.70;;
21339;SDS011;10828;47.064;15.422;2022-09-12T13:10:26;1.83;;;0.90;;
21339;SDS011;10828;47.064;15.422;2022-09-12T13:12:53;2.77;;;1.00;;
21339;SDS011;10828;47.064;15.422;2022-09-12T13:15:28;1.17;;;0.77;;
21339;SDS011;10828;47.064;15.422;2022-09-12T13:18:10;1.33;;;0.87;;
21339;SDS011;10828;47.064;15.422;2022-09-12T13:20:50;1.30;;;0.83;;
21339;SDS011;10828;47.064;15.422;2022-09-12T13:23:26;2.07;;;0.87;;
21339;SDS011;10828;47.064;15.422;2022-09-12T13:26:00;1.70;;;1.00;;
21339;SDS011;10828;47.064;15.422;2022-09-12T13:28:28;1.83;;;0.70;;
21339;SDS011;10828;47.064;15.422;2022-09-12T13:30:58;4.10;;;0.90;;
21339;SDS011;10828;47.064;15.422;2022-09-12T13:43:42;1.30;;;0.80;;
21339;SDS011;10828;47.064;15.422;2022-09-12T13:46:13;1.57;;;0.80;;
21339;SDS011;10828;47.064;15.422;2022-09-12T13:48:46;1.97;;;0.73;;
21339;SDS011;10828;47.064;15.422;2022-09-12T13:51:23;1.23;;;0.70;;
21339;SDS011;10828;47.064;15.422;2022-09-12T13:53:51;2.57;;;0.70;;
21339;SDS011;10828;47.064;15.422;2022-09-12T13:56:18;4.43;;;1.10;;
21339;SDS011;10828;47.064;15.422;2022-09-12T13:58:56;3.37;;;0.93;;
21339;SDS011;10828;47.064;15.422;2022-09-12T14:01:24;1.10;;;0.70;;
21339;SDS011;10828;47.064;15.422;2022-09-12T14:04:09;1.57;;;0.80;;
21339;SDS011;10828;47.064;15.422;2022-09-12T14:06:58;2.47;;;0.80;;
21339;SDS011;10828;47.064;15.422;2022-09-12T14:09:28;2.40;;;0.90;;
21339;SDS011;10828;47.064;15.422;2022-09-12T14:11:55;7.47;;;1.03;;
21339;SDS011;10828;47.064;15.422;2022-09-12T14:14:32;2.40;;;0.80;;
21339;SDS011;10828;47.064;15.422;2022-09-12T14:17:00;3.50;;;1.03;;
21339;SDS011;10828;47.064;15.422;2022-09-12T14:19:27;3.57;;;0.90;;
21339;SDS011;10828;47.064;15.422;2022-09-12T14:21:54;1.80;;;0.70;;
21339;SDS011;10828;47.064;15.422;2022-09-12T14:24:21;1.73;;;0.93;;
21339;SDS011;10828;47.064;15.422;2022-09-12T14:26:48;1.27;;;0.70;;
21339;SDS011;10828;47.064;15.422;2022-09-12T14:29:16;2.23;;;1.00;;
21339;SDS011;10828;47.064;15.422;2022-09-12T14:31:59;4.90;;;0.80;;
21339;SDS011;10828;47.064;15.422;2022-09-12T14:34:27;2.30;;;0.70;;
21339;SDS011;10828;47.064;15.422;2022-09-12T14:36:55;1.20;;;0.70;;
21339;SDS011;10828;47.064;15.422;2022-09-12T14:39:32;1.63;;;0.80;;
21339;SDS011;10828;47.064;15.422;2022-09-12T14:42:02;3.00;;;1.23;;
21339;SDS011;10828;47.064;15.422;2022-09-12T14:44:28;5.60;;;1.07;;
21339;SDS011;10828;47.064;15.422;2022-09-12T14:46:55;2.30;;;0.93;;
21339;SDS011;10828;47.064;15.422;2022-09-12T14:49:26;2.13;;;0.80;;
21339;SDS011;10828;47.064;15.422;2022-09-12T14:51:57;2.27;;;0.90;;
21339;SDS011;10828;47.064;15.422;2022-09-12T14:56:59;1.50;;;0.80;;
21339;SDS011;10828;47.064;15.422;2022-09-12T14:59:29;3.27;;;0.93;;
21339;SDS011;10828;47.064;15.422;2022-09-12T15:04:43;5.83;;;0.90;;
21339;SDS011;10828;47.064;15.422;2022-09-12T15:09:56;1.13;;;0.70;;
21339;SDS011;10828;47.064;15.422;2022-09-12T15:12:28;1.30;;;0.87;;
21339;SDS011;10828;47.064;15.422;2022-09-12T15:17:40;1.77;;;0.90;;
21339;SDS011;10828;47.064;15.422;2022-09-12T15:20:06;1.27;;;0.90;;
21339;SDS011;10828;47.064;15.422;2022-09-12T15:22:33;2.20;;;0.90;;
21339;SDS011;10828;47.064;15.422;2022-09-12T15:24:59;3.50;;;1.23;;
21339;SDS011;10828;47.064;15.422;2022-09-12T15:27:25;2.70;;;1.00;;
21339;SDS011;10828;47.064;15.422;2022-09-12T15:29:52;3.20;;;1.10;;
21339;SDS011;10828;47.064;15.422;2022-09-12T15:32:22;6.57;;;1.43;;
21339;SDS011;10828;47.064;15.422;2022-09-12T15:34:50;6.13;;;1.60;;
21339;SDS011;10828;47.064;15.422;2022-09-12T15:37:21;7.90;;;1.47;;
21339;SDS011;10828;47.064;15.422;2022-09-12T15:39:48;4.23;;;1.20;;
21339;SDS011;10828;47.064;15.422;2022-09-12T15:42:15;6.33;;;1.77;;
21339;SDS011;10828;47.064;15.422;2022-09-12T15:44:42;2.10;;;1.10;;
21339;SDS011;10828;47.064;15.422;2022-09-12T15:47:11;6.83;;;1.80;;
21339;SDS011;10828;47.064;15.422;2022-09-12T15:49:38;2.47;;;1.10;;
21339;SDS011;10828;47.064;15.422;2022-09-12T15:52:05;1.93;;;0.90;;
21339;SDS011;10828;47.064;15.422;2022-09-12T15:54:32;18.10;;;1.97;;
21339;SDS011;10828;47.064;15.422;2022-09-12T15:56:59;4.77;;;1.30;;
21339;SDS011;10828;47.064;15.422;2022-09-12T15:59:28;7.17;;;1.33;;
21339;SDS011;10828;47.064;15.422;2022-09-12T16:01:55;3.10;;;1.23;;
21339;SDS011;10828;47.064;15.422;2022-09-12T16:04:22;4.50;;;2.13;;
21339;SDS011;10828;47.064;15.422;2022-09-12T16:06:52;4.20;;;1.67;;
21339;SDS011;10828;47.064;15.422;2022-09-12T16:09:21;1.77;;;1.00;;
21339;SDS011;10828;47.064;15.422;2022-09-12T16:11:47;8.17;;;1.77;;
21339;SDS011;10828;47.064;15.422;2022-09-12T16:14:15;4.50;;;1.30;;
21339;SDS011;10828;47.064;15.422;2022-09-12T16:16:51;7.00;;;1.40;;
21339;SDS011;10828;47.064;15.422;2022-09-12T16:21:48;9.10;;;1.63;;
21339;SDS011;10828;47.064;15.422;2022-09-12T16:24:16;10.60;;;1.50;;
21339;SDS011;10828;47.064;15.422;2022-09-12T16:26:42;6.70;;;1.10;;
21339;SDS011;10828;47.064;15.422;2022-09-12T16:29:11;7.47;;;1.43;;
21339;SDS011;10828;47.064;15.422;2022-09-12T16:31:45;5.63;;;1.40;;
21339;SDS011;10828;47.064;15.422;2022-09-12T16:34:11;2.93;;;1.50;;
21339;SDS011;10828;47.064;15.422;2022-09-12T16:36:37;3.60;;;1.40;;
21339;SDS011;10828;47.064;15.422;2022-09-12T16:39:04;6.40;;;1.83;;
21339;SDS011;10828;47.064;15.422;2022-09-12T16:41:38;5.97;;;1.33;;
21339;SDS011;10828;47.064;15.422;2022-09-12T16:44:12;5.40;;;2.70;;
21339;SDS011;10828;47.064;15.422;2022-09-12T16:46:41;8.53;;;1.87;;
21339;SDS011;10828;47.064;15.422;2022-09-12T16:49:08;4.47;;;1.87;;
21339;SDS011;10828;47.064;15.422;2022-09-12T16:51:36;11.60;;;1.80;;
21339;SDS011;10828;47.064;15.422;2022-09-12T16:54:02;8.27;;;2.30;;
21339;SDS011;10828;47.064;15.422;2022-09-12T16:56:28;10.10;;;1.70;;
21339;SDS011;10828;47.064;15.422;2022-09-12T16:58:54;4.00;;;1.23;;
21339;SDS011;10828;47.064;15.422;2022-09-12T17:01:21;4.80;;;1.40;;
21339;SDS011;10828;47.064;15.422;2022-09-12T17:03:52;7.23;;;2.47;;
21339;SDS011;10828;47.064;15.422;2022-09-12T17:06:19;5.00;;;1.60;;
21339;SDS011;10828;47.064;15.422;2022-09-12T17:08:47;6.03;;;1.80;;
21339;SDS011;10828;47.064;15.422;2022-09-12T17:11:14;3.07;;;1.40;;
21339;SDS011;10828;47.064;15.422;2022-09-12T17:13:44;6.10;;;1.60;;
21339;SDS011;10828;47.064;15.422;2022-09-12T17:16:11;8.30;;;1.70;;
21339;SDS011;10828;47.064;15.422;2022-09-12T17:18:39;11.50;;;2.10;;
21339;SDS011;10828;47.064;15.422;2022-09-12T17:21:05;5.27;;;2.07;;
21339;SDS011;10828;47.064;15.422;2022-09-12T17:23:34;4.53;;;1.80;;
21339;SDS011;10828;47.064;15.422;2022-09-12T17:26:01;5.70;;;1.77;;
21339;SDS011;10828;47.064;15.422;2022-09-12T17:28:30;15.83;;;2.50;;
21339;SDS011;10828;47.064;15.422;2022-09-12T17:30:58;7.03;;;2.00;;
21339;SDS011;10828;47.064;15.422;2022-09-12T17:33:26;5.93;;;1.93;;
21339;SDS011;10828;47.064;15.422;2022-09-12T17:35:52;10.37;;;2.20;;
21339;SDS011;10828;47.064;15.422;2022-09-12T17:38:25;6.57;;;2.40;;
21339;SDS011;10828;47.064;15.422;2022-09-12T17:40:53;6.77;;;1.93;;
21339;SDS011;10828;47.064;15.422;2022-09-12T17:43:19;9.03;;;2.43;;
21339;SDS011;10828;47.064;15.422;2022-09-12T17:45:45;4.53;;;1.97;;
21339;SDS011;10828;47.064;15.422;2022-09-12T17:48:17;5.33;;;1.63;;
21339;SDS011;10828;47.064;15.422;2022-09-12T17:50:44;7.47;;;2.17;;